createdAt,value
2018-09-21T00:00:46.668Z,22.33
2018-09-21T00:03:15.255Z,13.37
2018-09-21T00:05:43.988Z,16.90
2018-09-21T00:08:12.592Z,15.60
2018-09-21T00:10:41.163Z,11.50
2018-09-21T00:13:09.728Z,18.40
2018-09-21T00:15:38.420Z,13.53
2018-09-21T00:18:07.081Z,12.57
2018-09-21T00:20:35.655Z,14.93
2018-09-21T00:23:04.611Z,12.70
2018-09-21T00:25:33.192Z,16.07
2018-09-21T00:28:02.232Z,16.10
2018-09-21T00:30:30.956Z,12.83
2018-09-21T00:32:59.831Z,15.27
2018-09-21T00:35:28.432Z,12.70
2018-09-21T00:37:57.116Z,15.83
2018-09-21T00:40:25.724Z,15.30
2018-09-21T00:42:54.295Z,13.87
2018-09-21T00:45:23.436Z,16.40
2018-09-21T00:47:52.008Z,16.47
2018-09-21T00:50:20.603Z,16.13
2018-09-21T00:52:49.210Z,15.80
2018-09-21T00:55:17.782Z,17.90
2018-09-21T00:57:46.360Z,15.07
2018-09-21T01:00:15.006Z,14.10
2018-09-21T01:02:43.619Z,20.47
2018-09-21T01:05:12.204Z,17.10
2018-09-21T01:07:40.976Z,14.40
2018-09-21T01:10:09.559Z,17.57
2018-09-21T01:12:38.120Z,17.47
2018-09-21T01:15:06.719Z,16.10
2018-09-21T01:17:35.684Z,16.17
2018-09-21T01:20:04.303Z,19.23
2018-09-21T01:22:33.572Z,15.53
2018-09-21T01:25:02.156Z,13.63
2018-09-21T01:27:30.772Z,17.47
2018-09-21T01:29:59.944Z,16.33
2018-09-21T01:32:28.540Z,16.13
2018-09-21T01:34:57.593Z,13.30
2018-09-21T01:37:26.284Z,14.30
2018-09-21T01:39:54.933Z,14.80
2018-09-21T01:42:23.500Z,15.27
2018-09-21T01:44:52.405Z,15.27
2018-09-21T01:47:21.646Z,15.20
2018-09-21T01:49:50.652Z,15.37
2018-09-21T01:52:19.684Z,13.20
2018-09-21T01:54:48.572Z,15.20
2018-09-21T01:57:17.630Z,12.97
2018-09-21T01:59:46.356Z,13.43
2018-09-21T02:02:15.177Z,22.20
2018-09-21T02:04:43.756Z,13.70
2018-09-21T02:07:13.031Z,14.50
2018-09-21T02:09:41.734Z,18.07
2018-09-21T02:12:10.379Z,16.23
2018-09-21T02:14:39.032Z,12.03
2018-09-21T02:17:07.656Z,15.73
2018-09-21T02:19:36.288Z,14.13
2018-09-21T02:22:05.013Z,13.00
2018-09-21T02:24:33.616Z,14.10
2018-09-21T02:27:02.212Z,21.73
2018-09-21T02:29:30.819Z,12.00
2018-09-21T02:31:59.823Z,13.30
2018-09-21T02:34:28.436Z,15.87
2018-09-21T02:36:57.297Z,14.90
2018-09-21T02:39:26.880Z,18.07
2018-09-21T02:41:55.443Z,13.20
2018-09-21T02:44:24.663Z,14.30
2018-09-21T02:46:53.232Z,14.30
2018-09-21T02:49:21.864Z,15.13
2018-09-21T02:51:50.604Z,13.80
2018-09-21T02:54:19.173Z,12.87
2018-09-21T02:56:47.809Z,17.40
2018-09-21T02:59:16.416Z,15.50
2018-09-21T03:01:44.989Z,15.90
2018-09-21T03:04:13.575Z,18.43
2018-09-21T03:06:42.643Z,16.33
2018-09-21T03:09:11.811Z,16.93
2018-09-21T03:11:40.386Z,15.97
2018-09-21T03:14:09.080Z,17.77
2018-09-21T03:16:37.676Z,16.80
2018-09-21T03:19:06.291Z,18.40
2018-09-21T03:21:34.916Z,18.13
2018-09-21T03:24:03.498Z,12.03
2018-09-21T03:26:32.744Z,16.43
2018-09-21T03:29:01.380Z,19.50
2018-09-21T03:31:29.992Z,17.47
2018-09-21T03:33:58.620Z,17.07
2018-09-21T03:36:27.508Z,19.93
2018-09-21T03:38:56.081Z,14.90
2018-09-21T03:41:25.075Z,18.27
2018-09-21T03:43:54.324Z,12.50
2018-09-21T03:46:23.300Z,13.77
2018-09-21T03:48:51.952Z,19.37
2018-09-21T03:51:20.632Z,17.43
2018-09-21T03:53:49.992Z,24.80
2018-09-21T03:56:18.585Z,14.67
2018-09-21T03:58:47.312Z,15.20
2018-09-21T04:01:15.962Z,15.53
2018-09-21T04:03:44.521Z,18.73
2018-09-21T04:06:13.512Z,18.17
2018-09-21T04:08:42.102Z,17.90
2018-09-21T04:11:10.683Z,14.47
2018-09-21T04:13:39.832Z,18.50
2018-09-21T04:16:08.895Z,17.57
2018-09-21T04:18:37.888Z,21.33
2018-09-21T04:21:07.227Z,16.60
2018-09-21T04:23:35.867Z,17.60
2018-09-21T04:26:04.476Z,24.73
2018-09-21T04:28:33.315Z,17.97
2018-09-21T04:31:01.893Z,17.80
2018-09-21T04:33:30.787Z,20.53
2018-09-21T04:35:59.950Z,18.43
2018-09-21T04:38:29.147Z,18.17
2018-09-21T04:40:57.781Z,17.40
2018-09-21T04:43:26.468Z,15.13
2018-09-21T04:45:55.132Z,18.70
2018-09-21T04:48:23.638Z,18.40
2018-09-21T04:50:52.288Z,21.53
2018-09-21T04:53:22.238Z,19.23
2018-09-21T04:55:51.203Z,14.80
2018-09-21T04:58:20.356Z,20.67
2018-09-21T05:00:49.027Z,18.10
2018-09-21T05:03:17.622Z,16.50
2018-09-21T05:05:48.272Z,20.23
2018-09-21T05:08:17.087Z,16.17
2018-09-21T05:10:45.928Z,18.20
2018-09-21T05:13:14.942Z,22.57
2018-09-21T05:15:43.520Z,15.33
2018-09-21T05:18:12.115Z,18.87
2018-09-21T05:20:40.860Z,15.83
2018-09-21T05:23:09.872Z,18.87
2018-09-21T05:25:38.464Z,18.17
2018-09-21T05:28:07.648Z,17.23
2018-09-21T05:30:36.215Z,16.37
2018-09-21T05:33:04.789Z,14.53
2018-09-21T05:35:33.836Z,16.90
2018-09-21T05:38:02.439Z,13.40
2018-09-21T05:40:31.008Z,20.67
2018-09-21T05:42:59.623Z,13.67
2018-09-21T05:45:28.679Z,15.13
2018-09-21T05:47:57.720Z,16.43
2018-09-21T05:50:26.332Z,15.53
2018-09-21T05:52:54.916Z,15.87
2018-09-21T05:55:23.504Z,11.90
2018-09-21T05:57:52.204Z,12.10
2018-09-21T06:00:20.808Z,19.33
2018-09-21T06:02:49.755Z,12.50
2018-09-21T06:05:18.404Z,13.60
2018-09-21T06:07:47.483Z,18.47
2018-09-21T06:10:16.011Z,15.27
2018-09-21T06:12:44.656Z,14.90
2018-09-21T06:15:13.243Z,17.10
2018-09-21T06:17:41.822Z,11.50
2018-09-21T06:20:12.971Z,11.93
2018-09-21T06:22:45.102Z,15.43
2018-09-21T06:25:08.171Z,11.57
2018-09-21T06:27:36.918Z,17.17
2018-09-21T06:30:05.878Z,12.10
2018-09-21T06:32:34.477Z,16.03
2018-09-21T06:35:03.144Z,12.23
2018-09-21T06:37:31.732Z,12.00
2018-09-21T06:40:00.756Z,15.77
2018-09-21T06:42:29.904Z,12.63
2018-09-21T06:44:59.076Z,18.03
2018-09-21T06:47:27.673Z,10.17
2018-09-21T06:49:57.413Z,11.43
2018-09-21T06:52:25.977Z,16.00
2018-09-21T06:54:54.588Z,15.37
2018-09-21T06:57:23.215Z,12.13
2018-09-21T06:59:51.811Z,14.00
2018-09-21T07:02:20.414Z,15.37
2018-09-21T07:04:49.024Z,19.37
2018-09-21T07:07:18.111Z,14.40
2018-09-21T07:09:46.700Z,14.20
2018-09-21T07:12:15.357Z,17.60
2018-09-21T07:14:43.961Z,14.30
2018-09-21T07:17:13.670Z,13.90
2018-09-21T07:19:42.316Z,12.70
2018-09-21T07:22:10.902Z,11.40
2018-09-21T07:24:39.482Z,13.30
2018-09-21T07:27:08.173Z,11.23
2018-09-21T07:29:36.769Z,13.77
2018-09-21T07:32:05.377Z,11.03
2018-09-21T07:34:34.076Z,9.60
2018-09-21T07:37:02.657Z,10.53
2018-09-21T07:39:31.460Z,11.63
2018-09-21T07:42:00.278Z,9.07
2018-09-21T07:44:28.991Z,10.37
2018-09-21T07:46:57.907Z,8.50
2018-09-21T07:49:26.620Z,10.80
2018-09-21T07:51:55.207Z,18.17
2018-09-21T07:54:24.207Z,9.27
2018-09-21T07:56:52.777Z,10.60
2018-09-21T07:59:21.368Z,19.73
2018-09-21T08:01:49.968Z,11.50
2018-09-21T08:04:18.583Z,28.87
2018-09-21T08:06:47.168Z,9.73
2018-09-21T08:09:15.751Z,12.10
2018-09-21T08:11:44.431Z,10.80
2018-09-21T08:14:13.360Z,12.60
2018-09-21T08:16:41.952Z,15.10
2018-09-21T08:19:11.117Z,9.00
2018-09-21T08:21:39.701Z,10.90
2018-09-21T08:24:08.268Z,9.93
2018-09-21T08:26:37.636Z,16.47
2018-09-21T08:29:06.211Z,8.97
2018-09-21T08:31:34.904Z,10.53
2018-09-21T08:34:03.712Z,9.83
2018-09-21T08:36:32.331Z,9.73
2018-09-21T08:39:00.935Z,9.33
2018-09-21T08:41:29.548Z,9.80
2018-09-21T08:43:58.116Z,17.53
2018-09-21T08:46:26.733Z,13.33
2018-09-21T08:48:55.448Z,16.47
2018-09-21T08:51:24.024Z,14.67
2018-09-21T08:53:52.642Z,12.50
2018-09-21T08:56:21.796Z,17.03
2018-09-21T08:58:50.489Z,10.00
2018-09-21T09:01:19.125Z,7.80
2018-09-21T09:03:48.251Z,8.50
2018-09-21T09:06:16.832Z,13.73
2018-09-21T09:08:45.895Z,8.20
2018-09-21T09:11:14.544Z,9.80
2018-09-21T09:13:43.117Z,9.43
2018-09-21T09:16:12.724Z,12.77
2018-09-21T09:18:41.603Z,15.73
2018-09-21T09:21:10.196Z,12.80
2018-09-21T09:23:38.812Z,8.73
2018-09-21T09:26:07.455Z,9.20
2018-09-21T09:28:36.021Z,9.67
2018-09-21T09:31:05.507Z,9.73
2018-09-21T09:33:34.187Z,7.73
2018-09-21T09:36:02.943Z,8.77
2018-09-21T09:38:31.528Z,12.90
2018-09-21T09:41:00.668Z,8.60
2018-09-21T09:43:29.248Z,11.83
2018-09-21T09:45:57.823Z,6.57
2018-09-21T09:48:26.529Z,9.50
2018-09-21T09:50:55.102Z,9.80
2018-09-21T09:53:23.707Z,7.80
2018-09-21T09:55:52.486Z,8.90
2018-09-21T09:58:21.052Z,11.07
2018-09-21T10:00:51.715Z,8.10
2018-09-21T10:03:21.797Z,10.03
2018-09-21T10:05:50.375Z,9.30
2018-09-21T10:08:19.056Z,9.57
2018-09-21T10:10:47.652Z,9.23
2018-09-21T10:13:16.639Z,7.83
2018-09-21T10:15:45.336Z,6.23
2018-09-21T10:18:13.944Z,6.67
2018-09-21T10:20:42.609Z,5.53
2018-09-21T10:23:11.656Z,7.73
2018-09-21T10:25:40.293Z,7.63
2018-09-21T10:28:09.065Z,8.93
2018-09-21T10:30:37.951Z,6.63
2018-09-21T10:33:06.643Z,7.20
2018-09-21T10:35:35.415Z,10.63
2018-09-21T10:38:04.023Z,11.70
2018-09-21T10:40:32.719Z,9.80
2018-09-21T10:43:01.389Z,7.67
2018-09-21T10:45:30.032Z,7.07
2018-09-21T10:47:59.270Z,7.53
2018-09-21T10:50:28.317Z,6.50
2018-09-21T10:52:57.327Z,7.47
2018-09-21T10:55:25.932Z,7.97
2018-09-21T10:57:54.511Z,6.10
2018-09-21T11:00:23.470Z,7.43
2018-09-21T11:02:52.091Z,6.20
2018-09-21T11:05:21.124Z,11.37
2018-09-21T11:07:49.844Z,7.30
2018-09-21T11:10:18.508Z,10.40
2018-09-21T11:12:47.084Z,7.50
2018-09-21T11:15:15.776Z,10.93
2018-09-21T11:17:44.364Z,6.20
2018-09-21T11:20:13.397Z,7.20
2018-09-21T11:22:42.100Z,19.53
2018-09-21T11:25:10.688Z,8.30
2018-09-21T11:27:39.260Z,8.77
2018-09-21T11:30:07.902Z,8.27
2018-09-21T11:32:36.493Z,12.00
2018-09-21T11:35:05.092Z,10.03
2018-09-21T11:37:33.813Z,8.80
2018-09-21T11:40:02.392Z,10.27
2018-09-21T11:42:30.959Z,8.03
2018-09-21T11:44:59.556Z,6.57
2018-09-21T11:47:28.715Z,8.80
2018-09-21T11:49:57.192Z,7.33
2018-09-21T11:52:25.851Z,10.30
2018-09-21T11:54:54.435Z,7.40
2018-09-21T11:57:23.012Z,7.17
2018-09-21T11:59:51.728Z,11.70
2018-09-21T12:02:20.308Z,9.50
2018-09-21T12:04:48.936Z,9.00
2018-09-21T12:07:17.932Z,6.70
2018-09-21T12:09:46.521Z,6.60
2018-09-21T12:12:15.110Z,9.73
2018-09-21T12:14:44.131Z,6.77
2018-09-21T12:17:13.085Z,13.20
2018-09-21T12:19:41.712Z,9.67
2018-09-21T12:22:10.325Z,13.63
2018-09-21T12:24:38.911Z,10.50
2018-09-21T12:27:07.500Z,5.83
2018-09-21T12:29:36.518Z,14.60
2018-09-21T12:32:05.205Z,7.83
2018-09-21T12:34:33.775Z,9.30
2018-09-21T12:37:02.409Z,6.37
2018-09-21T12:39:30.988Z,10.43
2018-09-21T12:41:59.599Z,8.00
2018-09-21T12:44:28.535Z,7.43
2018-09-21T12:46:57.131Z,7.43
2018-09-21T12:49:25.703Z,6.77
2018-09-21T12:51:54.440Z,9.27
2018-09-21T12:54:23.045Z,7.80
2018-09-21T12:56:51.625Z,7.20
2018-09-21T12:59:20.734Z,7.60
2018-09-21T13:01:49.291Z,6.27
2018-09-21T13:04:17.870Z,7.50
2018-09-21T13:06:46.588Z,15.50
2018-09-21T13:09:15.209Z,10.57
2018-09-21T13:11:43.793Z,7.60
2018-09-21T13:14:12.485Z,8.10
2018-09-21T13:16:41.113Z,8.10
2018-09-21T13:19:09.707Z,5.50
2018-09-21T13:21:38.425Z,5.97
2018-09-21T13:24:07.076Z,7.43
2018-09-21T13:26:35.700Z,11.00
2018-09-21T13:29:04.323Z,12.43
2018-09-21T13:31:32.903Z,7.77
2018-09-21T13:34:01.483Z,8.50
2018-09-21T13:36:30.407Z,11.90
2018-09-21T13:38:59.701Z,12.13
2018-09-21T13:41:28.303Z,11.77
2018-09-21T13:43:56.915Z,12.33
2018-09-21T13:46:25.485Z,7.20
2018-09-21T13:48:54.100Z,6.20
2018-09-21T13:51:23.075Z,16.90
2018-09-21T13:53:51.737Z,7.80
2018-09-21T13:56:20.307Z,8.07
2018-09-21T13:58:48.964Z,6.57
2018-09-21T14:01:17.556Z,7.40
2018-09-21T14:03:46.164Z,8.60
2018-09-21T14:06:14.887Z,8.87
2018-09-21T14:08:43.451Z,9.10
2018-09-21T14:11:12.051Z,9.40
2018-09-21T14:13:40.749Z,16.90
2018-09-21T14:16:09.340Z,18.53
2018-09-21T14:18:37.976Z,5.63
2018-09-21T14:21:06.831Z,6.97
2018-09-21T14:23:35.540Z,3.63
2018-09-21T14:26:04.125Z,5.77
2018-09-21T14:28:32.884Z,8.17
2018-09-21T14:31:01.496Z,5.90
2018-09-21T14:33:30.104Z,4.13
2018-09-21T14:35:59.474Z,6.50
2018-09-21T14:38:28.089Z,6.13
2018-09-21T14:40:56.680Z,3.87
2018-09-21T14:43:25.705Z,14.50
2018-09-21T14:45:54.301Z,8.30
2018-09-21T14:48:22.904Z,5.13
2018-09-21T14:50:51.548Z,5.87
2018-09-21T14:53:20.150Z,10.80
2018-09-21T14:55:48.756Z,4.73
2018-09-21T14:58:17.371Z,2.60
2018-09-21T15:00:45.956Z,3.80
2018-09-21T15:03:14.548Z,4.97
2018-09-21T15:05:43.226Z,7.83
2018-09-21T15:08:12.293Z,3.50
2018-09-21T15:10:40.908Z,2.67
2018-09-21T15:13:09.636Z,2.80
2018-09-21T15:15:38.344Z,3.50
2018-09-21T15:18:06.925Z,11.63
2018-09-21T15:20:35.992Z,3.10
2018-09-21T15:23:04.592Z,8.13
2018-09-21T15:25:33.192Z,4.30
2018-09-21T15:28:01.799Z,4.00
2018-09-21T15:30:30.375Z,4.20
2018-09-21T15:32:58.943Z,2.47
2018-09-21T15:35:27.657Z,2.43
2018-09-21T15:37:56.567Z,1.90
2018-09-21T15:40:25.652Z,4.23
2018-09-21T15:42:54.302Z,2.77
2018-09-21T15:45:22.934Z,1.60
2018-09-21T15:47:51.597Z,1.70
2018-09-21T15:50:20.333Z,2.43
2018-09-21T15:52:49.872Z,2.97
2018-09-21T15:55:18.445Z,2.10
2018-09-21T15:57:47.055Z,1.20
2018-09-21T16:00:16.475Z,1.20
2018-09-21T16:02:45.056Z,1.17
2018-09-21T16:05:13.988Z,1.20
2018-09-21T16:07:42.705Z,1.40
2018-09-21T16:10:11.748Z,1.53
2018-09-21T16:12:40.439Z,2.60
2018-09-21T16:15:09.632Z,2.13
2018-09-21T16:17:38.482Z,4.13
2018-09-21T16:20:07.447Z,1.30
2018-09-21T16:22:36.020Z,1.67
2018-09-21T16:25:05.849Z,1.20
2018-09-21T16:27:34.940Z,3.73
2018-09-21T16:30:03.535Z,2.40
2018-09-21T16:32:34.134Z,1.33
2018-09-21T16:35:02.779Z,1.10
2018-09-21T16:37:31.923Z,1.93
2018-09-21T16:40:00.522Z,1.77
2018-09-21T16:42:30.793Z,2.80
2018-09-21T16:44:59.431Z,3.13
2018-09-21T16:47:27.996Z,2.60
2018-09-21T16:49:56.714Z,1.40
2018-09-21T16:52:25.878Z,1.30
2018-09-21T16:54:54.417Z,2.50
2018-09-21T16:57:23.143Z,1.97
2018-09-21T16:59:52.277Z,5.10
2018-09-21T17:02:20.860Z,2.23
2018-09-21T17:04:49.486Z,1.43
2018-09-21T17:07:18.649Z,3.43
2018-09-21T17:09:48.980Z,4.20
2018-09-21T17:12:19.279Z,3.40
2018-09-21T17:14:47.872Z,5.33
2018-09-21T17:17:16.512Z,6.50
2018-09-21T17:19:45.476Z,2.93
2018-09-21T17:22:14.060Z,5.67
2018-09-21T17:24:42.752Z,2.07
2018-09-21T17:27:12.172Z,2.97
2018-09-21T17:29:40.775Z,2.97
2018-09-21T17:32:09.537Z,1.87
2018-09-21T17:34:38.091Z,2.20
2018-09-21T17:37:07.102Z,3.60
2018-09-21T17:39:35.711Z,6.97
2018-09-21T17:42:04.307Z,15.30
2018-09-21T17:44:32.937Z,3.73
2018-09-21T17:47:01.678Z,3.00
2018-09-21T17:49:30.292Z,6.40
2018-09-21T17:51:59.467Z,9.00
2018-09-21T17:54:28.065Z,3.50
2018-09-21T17:56:57.436Z,5.57
2018-09-21T17:59:26.039Z,5.37
2018-09-21T18:01:54.684Z,4.90
2018-09-21T18:04:23.252Z,2.90
2018-09-21T18:06:51.948Z,13.83
2018-09-21T18:09:20.549Z,6.97
2018-09-21T18:11:49.128Z,5.27
2018-09-21T18:14:17.707Z,3.57
2018-09-21T18:16:46.391Z,5.40
2018-09-21T18:19:15.062Z,7.90
2018-09-21T18:21:43.676Z,3.27
2018-09-21T18:24:12.275Z,6.40
2018-09-21T18:26:40.855Z,9.90
2018-09-21T18:29:09.436Z,3.80
2018-09-21T18:31:38.275Z,8.50
2018-09-21T18:34:06.952Z,6.57
2018-09-21T18:36:35.528Z,3.80
2018-09-21T18:39:05.768Z,8.07
2018-09-21T18:41:34.357Z,4.90
2018-09-21T18:44:02.980Z,4.30
2018-09-21T18:46:31.695Z,4.57
2018-09-21T18:49:00.419Z,3.63
2018-09-21T18:51:29.008Z,1.53
2018-09-21T18:53:57.720Z,5.70
2018-09-21T18:56:26.300Z,6.93
2018-09-21T18:58:54.976Z,2.43
2018-09-21T19:01:23.680Z,12.70
2018-09-21T19:03:52.333Z,4.00
2018-09-21T19:06:20.891Z,3.00
2018-09-21T19:08:49.614Z,4.30
2018-09-21T19:11:18.216Z,6.70
2018-09-21T19:13:46.810Z,7.80
2018-09-21T19:16:15.743Z,2.73
2018-09-21T19:18:44.416Z,3.63
2018-09-21T19:21:13.031Z,2.07
2018-09-21T19:23:41.668Z,6.27
2018-09-21T19:26:10.348Z,4.13
2018-09-21T19:28:38.932Z,3.30
2018-09-21T19:31:07.589Z,1.80
2018-09-21T19:33:36.171Z,3.20
2018-09-21T19:36:04.765Z,4.90
2018-09-21T19:38:33.440Z,2.70
2018-09-21T19:41:02.023Z,5.17
2018-09-21T19:43:30.612Z,3.53
2018-09-21T19:45:59.213Z,4.37
2018-09-21T19:48:27.776Z,5.00
2018-09-21T19:50:56.367Z,2.27
2018-09-21T19:53:25.072Z,5.33
2018-09-21T19:55:53.633Z,4.83
2018-09-21T19:58:22.247Z,5.80
2018-09-21T20:00:50.932Z,5.73
2018-09-21T20:03:19.576Z,2.90
2018-09-21T20:05:48.208Z,3.00
2018-09-21T20:08:16.912Z,12.63
2018-09-21T20:10:45.492Z,12.23
2018-09-21T20:13:14.094Z,3.47
2018-09-21T20:15:42.714Z,8.17
2018-09-21T20:18:11.290Z,2.03
2018-09-21T20:20:39.855Z,3.60
2018-09-21T20:23:08.556Z,4.07
2018-09-21T20:25:37.193Z,6.90
2018-09-21T20:28:05.763Z,13.20
2018-09-21T20:30:39.858Z,7.77
2018-09-21T20:33:13.752Z,1.97
2018-09-21T20:35:42.487Z,4.13
2018-09-21T20:38:11.068Z,3.40
2018-09-21T20:40:39.688Z,3.13
2018-09-21T20:43:08.359Z,2.57
2018-09-21T20:45:36.950Z,5.27
2018-09-21T20:48:05.545Z,2.90
2018-09-21T20:50:34.643Z,4.20
2018-09-21T20:53:03.675Z,4.17
2018-09-21T20:55:32.284Z,3.17
2018-09-21T20:58:00.956Z,4.00
2018-09-21T21:00:29.560Z,3.93
2018-09-21T21:02:58.153Z,2.80
2018-09-21T21:05:27.081Z,4.17
2018-09-21T21:07:55.986Z,4.27
2018-09-21T21:10:24.677Z,2.00
2018-09-21T21:12:53.295Z,1.93
2018-09-21T21:15:21.896Z,2.03
2018-09-21T21:17:50.496Z,7.90
2018-09-21T21:20:19.270Z,3.87
2018-09-21T21:22:47.874Z,8.60
2018-09-21T21:25:16.804Z,2.30
2018-09-21T21:27:45.468Z,3.30
2018-09-21T21:30:14.068Z,1.93
2018-09-21T21:32:43.277Z,4.20
2018-09-21T21:35:11.908Z,3.80
2018-09-21T21:37:40.509Z,3.83
2018-09-21T21:40:09.334Z,7.60
2018-09-21T21:42:38.056Z,7.40
2018-09-21T21:45:06.668Z,7.03
2018-09-21T21:47:35.252Z,3.53
2018-09-21T21:50:03.881Z,1.93
2018-09-21T21:52:32.455Z,7.60
2018-09-21T21:55:01.044Z,3.33
2018-09-21T21:57:29.805Z,6.50
2018-09-21T21:59:58.444Z,14.93
2018-09-21T22:02:27.090Z,3.07
2018-09-21T22:04:56.252Z,4.50
2018-09-21T22:07:24.912Z,2.40
2018-09-21T22:09:53.494Z,2.70
2018-09-21T22:12:27.283Z,2.17
2018-09-21T22:14:55.864Z,5.20
2018-09-21T22:17:24.444Z,6.40
2018-09-21T22:19:53.492Z,2.30
2018-09-21T22:22:22.071Z,2.13
2018-09-21T22:24:50.776Z,7.10
2018-09-21T22:27:19.785Z,3.53
2018-09-21T22:29:48.392Z,4.70
2018-09-21T22:32:17.515Z,5.80
2018-09-21T22:34:46.600Z,7.50
2018-09-21T22:37:15.585Z,3.30
2018-09-21T22:39:44.189Z,3.97
2018-09-21T22:42:12.908Z,7.63
2018-09-21T22:44:42.568Z,2.00
2018-09-21T22:47:11.140Z,4.30
2018-09-21T22:49:39.739Z,5.40
2018-09-21T22:52:09.285Z,5.83
2018-09-21T22:54:37.872Z,3.83
2018-09-21T22:57:06.980Z,8.03
2018-09-21T22:59:35.556Z,2.80
2018-09-21T23:02:04.667Z,8.73
2018-09-21T23:04:33.495Z,2.80
2018-09-21T23:07:02.872Z,4.40
2018-09-21T23:09:31.442Z,4.47
2018-09-21T23:12:00.508Z,8.57
2018-09-21T23:14:29.104Z,2.20
2018-09-21T23:16:57.692Z,14.30
2018-09-21T23:19:26.308Z,3.80
2018-09-21T23:21:54.914Z,4.47
2018-09-21T23:24:23.917Z,5.67
2018-09-21T23:26:52.543Z,3.27
2018-09-21T23:29:21.247Z,4.83
2018-09-21T23:31:49.872Z,3.47
2018-09-21T23:34:18.588Z,2.10
2018-09-21T23:36:47.160Z,6.40
2018-09-21T23:39:15.767Z,4.23
2018-09-21T23:41:44.396Z,3.50
2018-09-21T23:44:12.956Z,3.53
2018-09-21T23:46:41.540Z,3.40
2018-09-21T23:49:10.244Z,15.00
2018-09-21T23:51:39.353Z,6.50
2018-09-21T23:54:08.388Z,3.43
2018-09-21T23:56:37.087Z,4.90
2018-09-21T23:59:05.692Z,5.57
